createdAt,value
2023-04-07T00:01:51.051Z,100250
2023-04-07T00:07:58.751Z,100247
2023-04-07T00:13:50.209Z,100260
2023-04-07T00:19:43.787Z,100245
2023-04-07T00:25:35.840Z,100240
2023-04-07T00:31:28.042Z,100231
2023-04-07T00:37:19.117Z,100226
2023-04-07T00:43:10.170Z,100222
2023-04-07T00:49:01.208Z,100226
2023-04-07T00:54:53.891Z,100220
2023-04-07T01:00:46.467Z,100209
2023-04-07T01:06:42.272Z,100209
2023-04-07T01:12:35.401Z,100197
2023-04-07T01:18:26.682Z,100198
2023-04-07T01:24:17.804Z,100191
2023-04-07T01:30:10.783Z,100197
2023-04-07T01:36:02.557Z,100195
2023-04-07T01:42:22.203Z,100199
2023-04-07T05:39:24.200Z,100252
2023-04-07T06:04:23.534Z,100279
2023-04-07T06:41:15.748Z,100303
2023-04-07T07:00:15.094Z,100315
2023-04-07T07:20:11.492Z,100334
2023-04-07T08:21:30.005Z,100405
2023-04-07T08:27:27.160Z,100407
2023-04-07T08:33:31.962Z,100413
2023-04-07T09:52:50.002Z,100448
2023-04-07T17:10:36.536Z,100681
2023-04-07T17:22:26.839Z,100690
2023-04-07T17:35:51.042Z,100707
2023-04-07T18:43:40.451Z,100773
2023-04-07T18:56:36.767Z,100789
2023-04-07T19:02:47.752Z,100794
2023-04-07T19:14:56.981Z,100808
2023-04-07T19:20:52.881Z,100819
2023-04-07T22:25:32.229Z,100908
2023-04-07T22:31:23.234Z,100911
2023-04-07T22:37:15.064Z,100910
2023-04-07T22:43:07.383Z,100917
2023-04-07T22:48:59.096Z,100916
2023-04-07T22:54:51.187Z,100914
2023-04-07T23:00:43.696Z,100920
2023-04-07T23:06:35.894Z,100926
2023-04-07T23:12:29.249Z,100931
2023-04-07T23:18:22.710Z,100930
2023-04-07T23:24:16.080Z,100938
2023-04-07T23:30:08.653Z,100944
2023-04-07T23:36:03.310Z,100946
2023-04-07T23:41:55.811Z,100947
2023-04-07T23:47:49.180Z,100958
2023-04-07T23:53:41.101Z,100962
2023-04-07T23:59:33.369Z,100969
